createdAt,value
2018-07-21T00:01:20.520Z,21.10
2018-07-21T00:03:49.033Z,21.00
2018-07-21T00:06:17.285Z,20.70
2018-07-21T00:08:45.482Z,20.60
2018-07-21T00:11:14.080Z,20.70
2018-07-21T00:13:42.813Z,20.80
2018-07-21T00:16:11.002Z,20.90
2018-07-21T00:18:39.219Z,21.00
2018-07-21T00:21:08.592Z,21.10
2018-07-21T00:23:37.740Z,21.10
2018-07-21T00:26:05.924Z,21.00
2018-07-21T00:28:34.081Z,20.50
2018-07-21T00:31:02.752Z,20.40
2018-07-21T00:33:30.912Z,20.40
2018-07-21T00:35:59.952Z,20.50
2018-07-21T00:38:28.124Z,20.50
2018-07-21T00:40:56.309Z,20.60
2018-07-21T00:43:24.504Z,20.70
2018-07-21T00:45:53.796Z,20.70
2018-07-21T00:48:21.964Z,20.70
2018-07-21T00:50:50.096Z,20.70
2018-07-21T00:53:19.232Z,20.40
2018-07-21T00:55:47.416Z,20.10
2018-07-21T00:58:15.588Z,20.20
2018-07-21T01:00:45.504Z,20.30
2018-07-21T01:03:14.484Z,20.20
2018-07-21T01:05:48.961Z,20.20
2018-07-21T01:08:17.132Z,20.20
2018-07-21T01:10:45.892Z,20.10
2018-07-21T01:13:14.078Z,20.00
2018-07-21T01:15:42.244Z,20.00
2018-07-21T01:18:10.593Z,20.00
2018-07-21T01:20:40.184Z,20.10
2018-07-21T01:23:08.300Z,20.10
2018-07-21T01:25:36.804Z,20.00
2018-07-21T01:28:04.960Z,19.90
2018-07-21T01:30:34.580Z,19.90
2018-07-21T01:33:04.732Z,19.80
2018-07-21T01:35:33.431Z,19.70
2018-07-21T01:38:02.635Z,19.70
2018-07-21T01:40:30.800Z,19.50
2018-07-21T01:42:59.325Z,19.40
2018-07-21T01:45:27.704Z,19.50
2018-07-21T01:47:55.854Z,19.50
2018-07-21T01:50:24.905Z,19.40
2018-07-21T01:52:53.784Z,19.30
2018-07-21T01:55:22.852Z,19.20
2018-07-21T01:57:51.001Z,19.20
2018-07-21T02:00:19.151Z,19.20
2018-07-21T02:02:47.605Z,19.10
2018-07-21T02:05:16.642Z,19.10
2018-07-21T02:07:45.313Z,19.00
2018-07-21T02:10:13.917Z,19.10
2018-07-21T02:12:42.079Z,19.20
2018-07-21T02:15:10.223Z,19.40
2018-07-21T02:17:38.340Z,19.40
2018-07-21T02:20:06.616Z,19.40
2018-07-21T02:22:34.798Z,19.40
2018-07-21T02:25:03.380Z,19.50
2018-07-21T02:27:32.191Z,19.60
2018-07-21T02:30:00.398Z,19.70
2018-07-21T02:34:56.486Z,19.70
2018-07-21T02:37:24.661Z,19.70
2018-07-21T02:39:52.839Z,19.70
2018-07-21T02:42:21.383Z,19.10
2018-07-21T02:44:49.577Z,18.80
2018-07-21T02:47:18.263Z,18.80
2018-07-21T02:49:46.441Z,18.40
2018-07-21T02:52:15.077Z,17.90
2018-07-21T02:54:43.225Z,17.70
2018-07-21T02:57:11.379Z,17.50
2018-07-21T02:59:40.592Z,17.50
2018-07-21T03:02:09.997Z,17.80
2018-07-21T03:04:38.141Z,18.00
2018-07-21T03:07:07.485Z,18.10
2018-07-21T03:09:35.656Z,18.20
2018-07-21T03:12:04.785Z,18.20
2018-07-21T03:14:32.975Z,18.10
2018-07-21T03:17:01.634Z,18.10
2018-07-21T03:19:29.794Z,18.00
2018-07-21T03:21:58.020Z,18.00
2018-07-21T03:24:26.137Z,18.10
2018-07-21T03:26:54.832Z,18.20
2018-07-21T03:29:24.209Z,18.10
2018-07-21T03:31:53.197Z,17.80
2018-07-21T03:34:21.368Z,17.80
2018-07-21T03:36:49.904Z,17.80
2018-07-21T03:39:18.136Z,17.80
2018-07-21T03:41:46.324Z,17.70
2018-07-21T03:44:14.484Z,17.70
2018-07-21T03:46:43.118Z,17.70
2018-07-21T03:49:11.257Z,17.80
2018-07-21T03:51:40.786Z,17.70
2018-07-21T03:54:08.918Z,17.80
2018-07-21T03:56:37.367Z,17.90
2018-07-21T03:59:05.867Z,18.10
2018-07-21T04:01:34.028Z,18.10
2018-07-21T04:04:02.142Z,18.10
2018-07-21T04:06:30.304Z,18.40
2018-07-21T04:08:59.492Z,18.70
2018-07-21T04:11:28.165Z,18.80
2018-07-21T04:13:56.676Z,18.80
2018-07-21T04:16:26.486Z,18.80
2018-07-21T04:18:55.467Z,19.00
2018-07-21T04:21:24.331Z,19.00
2018-07-21T04:23:53.021Z,19.10
2018-07-21T04:26:21.657Z,19.30
2018-07-21T04:28:50.176Z,19.40
2018-07-21T04:31:18.350Z,19.30
2018-07-21T04:33:46.477Z,19.20
2018-07-21T04:36:14.636Z,19.30
2018-07-21T04:38:43.336Z,19.30
2018-07-21T04:41:11.980Z,19.30
2018-07-21T04:43:41.099Z,19.30
2018-07-21T04:46:09.225Z,19.40
2018-07-21T04:48:38.000Z,19.50
2018-07-21T04:51:07.498Z,19.60
2018-07-21T04:56:05.864Z,20.10
2018-07-21T04:58:34.024Z,20.30
2018-07-21T05:01:02.728Z,20.40
2018-07-21T05:03:30.866Z,20.40
2018-07-21T05:05:59.340Z,20.60
2018-07-21T05:08:27.828Z,20.60
2018-07-21T05:10:56.040Z,20.80
2018-07-21T05:13:24.298Z,20.90
2018-07-21T05:15:53.742Z,21.00
2018-07-21T05:18:23.076Z,21.00
2018-07-21T05:20:51.383Z,21.20
2018-07-21T05:23:20.716Z,21.20
2018-07-21T05:25:48.852Z,21.40
2018-07-21T05:28:17.014Z,21.50
2018-07-21T05:30:45.812Z,21.60
2018-07-21T05:33:14.231Z,21.50
2018-07-21T05:35:44.316Z,21.20
2018-07-21T05:38:13.396Z,20.90
2018-07-21T05:40:42.273Z,20.70
2018-07-21T05:43:11.548Z,20.60
2018-07-21T05:45:41.072Z,20.70
2018-07-21T05:48:09.229Z,20.80
2018-07-21T05:50:38.324Z,20.90
2018-07-21T05:53:06.497Z,20.90
2018-07-21T05:55:34.652Z,21.10
2018-07-21T05:58:02.800Z,21.20
2018-07-21T06:00:31.661Z,21.30
2018-07-21T06:02:59.874Z,21.10
2018-07-21T06:05:28.012Z,21.00
2018-07-21T06:07:56.602Z,20.90
2018-07-21T06:10:25.236Z,20.80
2018-07-21T06:12:53.403Z,20.60
2018-07-21T06:15:22.272Z,20.60
2018-07-21T06:17:51.121Z,20.70
2018-07-21T06:20:20.173Z,20.80
2018-07-21T06:22:48.352Z,20.90
2018-07-21T06:25:16.528Z,21.00
2018-07-21T06:27:44.672Z,20.90
2018-07-21T06:30:13.294Z,20.60
2018-07-21T06:32:41.854Z,20.60
2018-07-21T06:35:10.025Z,20.60
2018-07-21T06:37:38.172Z,20.90
2018-07-21T06:40:07.233Z,21.20
2018-07-21T06:42:35.739Z,21.30
2018-07-21T06:45:04.332Z,21.40
2018-07-21T06:47:32.859Z,21.40
2018-07-21T06:50:02.085Z,21.60
2018-07-21T06:52:31.704Z,21.90
2018-07-21T06:55:00.900Z,22.00
2018-07-21T06:57:29.300Z,22.10
2018-07-21T06:59:58.369Z,22.10
2018-07-21T07:02:27.319Z,22.30
2018-07-21T07:04:55.433Z,22.40
2018-07-21T07:07:25.652Z,22.50
2018-07-21T07:09:53.836Z,22.40
2018-07-21T07:12:22.452Z,22.30
2018-07-21T07:14:51.202Z,22.30
2018-07-21T07:17:19.676Z,22.20
2018-07-21T07:19:47.820Z,22.40
2018-07-21T07:22:15.967Z,22.60
2018-07-21T07:24:44.689Z,22.70
2018-07-21T07:27:13.301Z,22.70
2018-07-21T07:29:41.728Z,22.90
2018-07-21T07:32:10.248Z,23.00
2018-07-21T07:34:38.792Z,23.20
2018-07-21T07:37:08.092Z,23.10
2018-07-21T07:39:36.300Z,22.90
2018-07-21T07:42:05.183Z,22.70
2018-07-21T07:44:34.308Z,22.60
2018-07-21T07:47:02.760Z,22.60
2018-07-21T07:49:30.896Z,22.70
2018-07-21T07:51:59.083Z,22.70
2018-07-21T07:54:27.209Z,22.90
2018-07-21T07:56:55.382Z,22.80
2018-07-21T07:59:23.560Z,22.70
2018-07-21T08:01:51.764Z,22.70
2018-07-21T08:04:20.471Z,22.60
2018-07-21T08:06:49.255Z,22.80
2018-07-21T08:09:17.436Z,22.80
2018-07-21T08:11:47.132Z,22.90
2018-07-21T08:14:15.313Z,23.20
2018-07-21T08:16:43.447Z,23.50
2018-07-21T08:19:11.592Z,23.90
2018-07-21T08:21:39.746Z,24.30
2018-07-21T08:24:08.900Z,24.60
2018-07-21T08:26:37.988Z,24.80
2018-07-21T08:29:07.558Z,24.90
2018-07-21T08:31:36.135Z,25.10
2018-07-21T08:34:04.499Z,25.20
2018-07-21T08:36:32.641Z,25.40
2018-07-21T08:39:00.760Z,25.70
2018-07-21T08:41:28.903Z,25.80
2018-07-21T08:43:57.084Z,25.80
2018-07-21T08:46:26.336Z,25.90
2018-07-21T08:48:54.492Z,26.10
2018-07-21T08:51:23.152Z,26.00
2018-07-21T08:53:51.344Z,25.60
2018-07-21T08:56:19.816Z,25.20
2018-07-21T08:58:48.008Z,25.10
2018-07-21T09:01:18.699Z,25.30
2018-07-21T09:03:49.086Z,25.20
2018-07-21T09:06:17.332Z,24.90
2018-07-21T09:08:45.476Z,24.60
2018-07-21T09:11:13.662Z,24.40
2018-07-21T09:13:43.600Z,24.10
2018-07-21T09:16:11.895Z,24.00
2018-07-21T09:18:40.633Z,23.80
2018-07-21T09:21:09.703Z,23.50
2018-07-21T09:23:38.209Z,23.40
2018-07-21T09:26:07.164Z,23.40
2018-07-21T09:28:36.347Z,23.30
2018-07-21T09:31:04.559Z,23.30
2018-07-21T09:33:33.102Z,23.20
2018-07-21T09:36:01.307Z,23.20
2018-07-21T09:38:29.477Z,23.30
2018-07-21T09:40:57.589Z,23.60
2018-07-21T09:43:25.765Z,23.80
2018-07-21T09:45:57.502Z,23.90
2018-07-21T09:48:27.115Z,23.90
2018-07-21T09:50:56.288Z,23.80
2018-07-21T09:53:25.512Z,23.80
2018-07-21T09:55:54.621Z,23.90
2018-07-21T09:58:24.896Z,23.90
2018-07-21T10:00:59.575Z,24.00
2018-07-21T10:03:28.884Z,24.00
2018-07-21T10:05:57.028Z,24.00
2018-07-21T10:08:25.532Z,24.00
2018-07-21T10:10:54.656Z,24.00
2018-07-21T10:13:23.587Z,23.90
2018-07-21T10:15:51.752Z,23.80
2018-07-21T10:18:21.121Z,23.60
2018-07-21T10:20:49.691Z,23.70
2018-07-21T10:23:18.196Z,23.70
2018-07-21T10:25:51.715Z,23.80
2018-07-21T10:28:25.524Z,23.80
2018-07-21T10:30:53.636Z,23.70
2018-07-21T10:33:21.772Z,23.70
2018-07-21T10:35:49.957Z,23.70
2018-07-21T10:38:19.200Z,23.80
2018-07-21T10:40:47.360Z,23.60
2018-07-21T10:43:16.679Z,23.40
2018-07-21T10:45:44.824Z,22.90
2018-07-21T10:48:15.030Z,22.40
2018-07-21T10:50:43.294Z,21.90
2018-07-21T10:53:12.429Z,21.80
2018-07-21T10:55:40.845Z,21.70
2018-07-21T10:58:08.964Z,21.70
2018-07-21T11:00:37.104Z,21.70
2018-07-21T11:03:07.000Z,21.60
2018-07-21T11:05:35.229Z,21.50
2018-07-21T11:08:05.405Z,21.50
2018-07-21T11:10:33.548Z,21.40
2018-07-21T11:13:03.120Z,21.50
2018-07-21T11:15:31.719Z,21.40
2018-07-21T11:18:00.417Z,21.50
2018-07-21T11:20:28.580Z,21.70
2018-07-21T11:22:57.404Z,21.70
2018-07-21T11:25:25.808Z,21.60
2018-07-21T11:27:54.376Z,21.60
2018-07-21T11:30:24.459Z,21.70
2018-07-21T11:32:52.613Z,21.90
2018-07-21T11:35:21.358Z,22.00
2018-07-21T11:37:50.024Z,22.20
2018-07-21T11:43:11.458Z,22.20
2018-07-21T11:45:49.648Z,22.00
2018-07-21T11:48:18.711Z,22.00
2018-07-21T11:50:48.916Z,22.10
2018-07-21T11:53:17.088Z,22.20
2018-07-21T11:55:45.284Z,22.40
2018-07-21T11:58:14.116Z,22.50
2018-07-21T12:00:42.831Z,22.60
2018-07-21T12:03:11.019Z,22.70
2018-07-21T12:05:39.283Z,22.80
2018-07-21T12:08:08.088Z,22.70
2018-07-21T12:10:36.308Z,22.70
2018-07-21T12:13:04.597Z,22.70
2018-07-21T12:15:32.744Z,22.70
2018-07-21T12:18:01.006Z,22.60
2018-07-21T12:20:29.416Z,22.40
2018-07-21T12:22:58.033Z,22.30
2018-07-21T12:25:26.946Z,22.40
2018-07-21T12:27:56.485Z,22.60
2018-07-21T12:30:25.296Z,22.70
2018-07-21T12:32:54.474Z,22.80
2018-07-21T12:35:22.836Z,23.00
2018-07-21T12:37:53.071Z,23.30
2018-07-21T12:40:22.724Z,23.40
2018-07-21T12:42:50.937Z,23.50
2018-07-21T12:45:20.667Z,23.60
2018-07-21T12:47:50.440Z,23.70
2018-07-21T12:50:18.589Z,23.70
2018-07-21T12:52:47.366Z,23.70
2018-07-21T12:55:15.548Z,23.30
2018-07-21T12:57:43.796Z,23.30
2018-07-21T13:00:14.023Z,23.40
2018-07-21T13:02:42.817Z,23.30
2018-07-21T13:05:11.832Z,23.20
2018-07-21T13:07:40.014Z,23.40
2018-07-21T13:10:08.169Z,23.50
2018-07-21T13:12:36.904Z,23.40
2018-07-21T13:15:05.800Z,23.50
2018-07-21T13:17:34.890Z,23.50
2018-07-21T13:20:03.556Z,23.60
2018-07-21T13:22:31.729Z,23.60
2018-07-21T13:24:59.896Z,23.70
2018-07-21T13:27:28.072Z,23.70
2018-07-21T13:29:56.512Z,23.60
2018-07-21T13:32:24.949Z,23.50
2018-07-21T13:34:53.410Z,23.40
2018-07-21T13:37:21.887Z,23.30
2018-07-21T13:39:50.566Z,23.50
2018-07-21T13:42:20.766Z,23.60
2018-07-21T13:44:49.293Z,23.70
2018-07-21T13:47:18.240Z,23.70
2018-07-21T13:49:46.436Z,23.70
2018-07-21T13:52:14.664Z,23.70
2018-07-21T13:54:42.980Z,23.70
2018-07-21T13:57:11.148Z,23.80
2018-07-21T13:59:39.362Z,23.80
2018-07-21T14:02:08.207Z,23.80
2018-07-21T14:04:36.340Z,23.90
2018-07-21T14:07:04.934Z,23.90
2018-07-21T14:09:33.085Z,23.90
2018-07-21T14:12:01.720Z,23.50
2018-07-21T14:14:29.849Z,23.10
2018-07-21T14:16:59.368Z,22.80
2018-07-21T14:19:27.492Z,22.70
2018-07-21T14:21:56.381Z,22.70
2018-07-21T14:24:24.621Z,22.70
2018-07-21T14:26:52.764Z,22.70
2018-07-21T14:29:21.492Z,22.90
2018-07-21T14:31:50.456Z,23.10
2018-07-21T14:34:18.596Z,22.90
2018-07-21T14:36:46.840Z,22.90
2018-07-21T14:39:15.260Z,23.10
2018-07-21T14:41:43.550Z,23.10
2018-07-21T14:44:11.712Z,23.30
2018-07-21T14:46:41.612Z,23.50
2018-07-21T14:49:09.812Z,23.60
2018-07-21T14:51:37.968Z,23.50
2018-07-21T14:54:06.132Z,23.40
2018-07-21T14:56:35.298Z,23.30
2018-07-21T14:59:04.496Z,23.30
2018-07-21T15:01:32.704Z,23.40
2018-07-21T15:04:01.222Z,23.20
2018-07-21T15:06:31.260Z,23.20
2018-07-21T15:09:00.042Z,23.00
2018-07-21T15:11:28.440Z,22.90
2018-07-21T15:13:57.327Z,23.00
2018-07-21T15:16:25.476Z,23.20
2018-07-21T15:18:53.620Z,23.20
2018-07-21T15:21:22.437Z,23.40
2018-07-21T15:23:50.607Z,23.30
2018-07-21T15:26:19.488Z,23.20
2018-07-21T15:28:47.913Z,23.40
2018-07-21T15:31:16.050Z,23.30
2018-07-21T15:33:44.199Z,23.50
2018-07-21T15:36:12.328Z,23.40
2018-07-21T15:38:40.552Z,23.70
2018-07-21T15:41:09.748Z,23.60
2018-07-21T15:43:38.461Z,23.70
2018-07-21T15:46:07.301Z,24.20
2018-07-21T15:48:36.141Z,24.60
2018-07-21T15:51:04.304Z,24.80
2018-07-21T15:53:32.452Z,24.80
2018-07-21T15:56:00.629Z,24.60
2018-07-21T15:58:28.801Z,24.60
2018-07-21T16:00:58.996Z,24.70
2018-07-21T16:03:27.151Z,24.60
2018-07-21T16:05:55.533Z,24.50
2018-07-21T16:08:24.240Z,24.60
2018-07-21T16:10:52.464Z,24.90
2018-07-21T16:13:20.876Z,25.20
2018-07-21T16:15:49.044Z,25.50
2018-07-21T16:18:17.700Z,25.70
2018-07-21T16:20:46.352Z,25.60
2018-07-21T16:23:14.513Z,25.60
2018-07-21T16:25:42.749Z,25.80
2018-07-21T16:28:10.932Z,25.80
2018-07-21T16:30:39.753Z,25.80
2018-07-21T16:33:07.840Z,25.80
2018-07-21T16:35:35.993Z,25.90
2018-07-21T16:38:05.107Z,26.00
2018-07-21T16:40:34.092Z,26.10
2018-07-21T16:43:03.132Z,26.10
2018-07-21T16:45:31.310Z,26.10
2018-07-21T16:48:00.135Z,26.10
2018-07-21T16:50:28.291Z,26.10
2018-07-21T16:52:56.417Z,26.10
2018-07-21T16:55:25.502Z,26.10
2018-07-21T16:57:53.989Z,26.10
2018-07-21T17:00:22.460Z,26.00
2018-07-21T17:02:50.600Z,26.10
2018-07-21T17:05:18.716Z,26.00
2018-07-21T17:07:46.880Z,26.00
2018-07-21T17:10:15.033Z,26.00
2018-07-21T17:12:43.236Z,25.90
2018-07-21T17:15:11.404Z,25.80
2018-07-21T17:17:40.200Z,25.90
2018-07-21T17:20:08.694Z,25.90
2018-07-21T17:22:38.087Z,25.90
2018-07-21T17:25:06.240Z,25.80
2018-07-21T17:27:35.844Z,25.80
2018-07-21T17:30:04.086Z,25.70
2018-07-21T17:32:33.240Z,25.60
2018-07-21T17:35:02.768Z,25.60
2018-07-21T17:37:31.478Z,25.60
2018-07-21T17:39:59.623Z,25.60
2018-07-21T17:42:28.040Z,25.50
2018-07-21T17:44:56.545Z,25.40
2018-07-21T17:47:25.300Z,25.40
2018-07-21T17:49:53.710Z,25.30
2018-07-21T17:52:22.180Z,25.30
2018-07-21T17:54:51.172Z,25.20
2018-07-21T17:57:19.625Z,25.10
2018-07-21T17:59:47.764Z,25.00
2018-07-21T18:02:15.900Z,24.90
2018-07-21T18:04:44.788Z,24.80
2018-07-21T18:07:13.473Z,24.70
2018-07-21T18:09:41.651Z,24.40
2018-07-21T18:12:09.804Z,24.10
2018-07-21T18:14:39.307Z,23.90
2018-07-21T18:17:08.252Z,23.80
2018-07-21T18:19:36.414Z,23.60
2018-07-21T18:22:04.901Z,23.60
2018-07-21T18:24:33.844Z,23.50
2018-07-21T18:27:02.636Z,23.30
2018-07-21T18:29:31.116Z,23.10
2018-07-21T18:31:59.512Z,23.00
2018-07-21T18:34:29.018Z,22.90
2018-07-21T18:36:57.889Z,22.80
2018-07-21T18:39:26.019Z,22.70
2018-07-21T18:41:54.180Z,22.60
2018-07-21T18:44:22.803Z,22.60
2018-07-21T18:46:51.575Z,22.60
2018-07-21T18:49:19.782Z,22.60
2018-07-21T18:51:48.413Z,22.30
2018-07-21T18:54:16.619Z,22.20
2018-07-21T18:56:44.812Z,22.20
2018-07-21T18:59:15.093Z,22.10
2018-07-21T19:04:11.816Z,21.80
2018-07-21T19:06:39.960Z,21.80
2018-07-21T19:09:09.513Z,21.80
2018-07-21T19:11:40.020Z,21.80
2018-07-21T19:14:08.186Z,21.70
2018-07-21T19:16:39.780Z,21.70
2018-07-21T19:19:08.247Z,21.60
2018-07-21T19:21:37.384Z,21.50
2018-07-21T19:24:05.560Z,21.40
2018-07-21T19:26:39.554Z,21.40
2018-07-21T19:29:07.744Z,21.30
2018-07-21T19:31:36.246Z,21.10
2018-07-21T19:34:04.909Z,21.00
2018-07-21T19:36:33.112Z,21.00
2018-07-21T19:39:01.246Z,20.90
2018-07-21T19:41:35.014Z,20.80
2018-07-21T19:44:03.937Z,20.70
2018-07-21T19:46:32.585Z,20.60
2018-07-21T19:49:01.084Z,20.60
2018-07-21T19:51:30.068Z,20.50
2018-07-21T19:53:58.194Z,20.40
2018-07-21T19:56:26.848Z,20.20
2018-07-21T19:58:55.047Z,19.90
2018-07-21T20:01:23.779Z,19.70
2018-07-21T20:03:52.856Z,19.70
2018-07-21T20:06:22.963Z,19.60
2018-07-21T20:08:51.557Z,19.60
2018-07-21T20:11:20.630Z,19.50
2018-07-21T20:13:49.530Z,19.60
2018-07-21T20:16:17.641Z,19.60
2018-07-21T20:18:46.313Z,19.60
2018-07-21T20:21:14.578Z,19.50
2018-07-21T20:23:42.674Z,19.40
2018-07-21T20:26:12.453Z,19.30
2018-07-21T20:28:40.609Z,19.30
2018-07-21T20:31:09.389Z,19.20
2018-07-21T20:33:37.538Z,19.20
2018-07-21T20:36:06.168Z,19.10
2018-07-21T20:38:34.304Z,19.00
2018-07-21T20:41:02.485Z,18.90
2018-07-21T20:43:31.880Z,18.80
2018-07-21T20:46:01.768Z,18.90
2018-07-21T20:48:29.968Z,18.90
2018-07-21T20:51:00.257Z,19.10
2018-07-21T20:53:28.433Z,19.10
2018-07-21T20:55:56.601Z,19.10
2018-07-21T20:58:24.785Z,19.10
2018-07-21T21:00:54.220Z,18.90
2018-07-21T21:03:22.380Z,18.80
2018-07-21T21:05:51.037Z,18.80
2018-07-21T21:08:19.224Z,18.80
2018-07-21T21:10:47.464Z,18.60
2018-07-21T21:13:15.636Z,18.60
2018-07-21T21:15:43.804Z,18.50
2018-07-21T21:18:15.493Z,18.60
2018-07-21T21:20:43.682Z,18.70
2018-07-21T21:23:11.920Z,18.80
2018-07-21T21:25:40.828Z,18.80
2018-07-21T21:28:08.980Z,18.80
2018-07-21T21:30:37.103Z,18.90
2018-07-21T21:33:05.412Z,18.90
2018-07-21T21:35:33.607Z,18.90
2018-07-21T21:38:02.633Z,18.80
2018-07-21T21:40:31.486Z,18.60
2018-07-21T21:43:00.612Z,18.50
2018-07-21T21:45:28.811Z,18.30
2018-07-21T21:47:57.044Z,18.30
2018-07-21T21:50:25.732Z,18.30
2018-07-21T21:52:53.897Z,18.30
2018-07-21T21:55:23.498Z,18.30
2018-07-21T21:57:53.623Z,18.10
2018-07-21T22:00:25.818Z,18.00
2018-07-21T22:02:54.688Z,17.90
2018-07-21T22:05:23.160Z,17.90
2018-07-21T22:07:51.331Z,18.10
2018-07-21T22:10:19.979Z,18.20
2018-07-21T22:12:49.186Z,18.10
2018-07-21T22:15:21.542Z,18.00
2018-07-21T22:17:50.936Z,18.00
2018-07-21T22:20:19.136Z,18.10
2018-07-21T22:22:47.343Z,18.20
2018-07-21T22:25:15.515Z,18.40
2018-07-21T22:27:44.773Z,18.50
2018-07-21T22:30:20.396Z,18.50
2018-07-21T22:32:49.197Z,18.60
2018-07-21T22:35:18.103Z,18.70
2018-07-21T22:37:46.260Z,18.60
2018-07-21T22:40:15.661Z,18.60
2018-07-21T22:42:43.802Z,18.70
2018-07-21T22:45:12.792Z,18.70
2018-07-21T22:47:41.225Z,18.60
2018-07-21T22:50:09.660Z,18.60
2018-07-21T22:52:37.859Z,18.50
2018-07-21T22:55:06.360Z,18.30
2018-07-21T22:57:34.531Z,18.30
2018-07-21T23:00:03.927Z,18.10
2018-07-21T23:02:32.072Z,18.00
2018-07-21T23:05:00.740Z,18.00
2018-07-21T23:07:28.927Z,17.80
2018-07-21T23:09:57.166Z,17.60
2018-07-21T23:12:25.321Z,17.50
2018-07-21T23:14:54.392Z,17.40
2018-07-21T23:17:22.564Z,17.30
2018-07-21T23:19:52.214Z,17.10
2018-07-21T23:22:20.323Z,17.10
2018-07-21T23:24:49.276Z,17.30
2018-07-21T23:27:19.560Z,17.30
2018-07-21T23:29:47.725Z,17.40
2018-07-21T23:32:16.322Z,17.50
2018-07-21T23:34:45.681Z,17.50
2018-07-21T23:37:14.975Z,17.40
2018-07-21T23:39:43.100Z,17.50
2018-07-21T23:42:11.296Z,17.60
2018-07-21T23:44:39.434Z,17.50
2018-07-21T23:47:08.643Z,17.40
2018-07-21T23:49:36.798Z,17.50
2018-07-21T23:52:05.801Z,17.50
2018-07-21T23:54:34.769Z,17.60
2018-07-21T23:57:03.543Z,17.70
2018-07-21T23:59:32.740Z,17.70
